createdAt,value
2022-09-12T00:01:11.895Z,6.50
2022-09-12T00:03:39.391Z,6.10
2022-09-12T00:06:23.135Z,6.43
2022-09-12T00:08:51.547Z,6.18
2022-09-12T00:11:18.206Z,6.70
2022-09-12T00:13:44.897Z,6.50
2022-09-12T00:16:16.756Z,5.93
2022-09-12T00:18:45.067Z,5.90
2022-09-12T00:21:11.546Z,5.43
2022-09-12T00:23:37.979Z,5.53
2022-09-12T00:26:06.639Z,5.45
2022-09-12T00:28:35.898Z,4.88
2022-09-12T00:31:06.699Z,5.82
2022-09-12T00:33:34.194Z,5.60
2022-09-12T00:36:05.515Z,5.67
2022-09-12T00:38:32.627Z,5.22
2022-09-12T00:40:59.017Z,5.70
2022-09-12T00:43:42.403Z,6.20
2022-09-12T00:46:39.633Z,5.53
2022-09-12T00:49:14.000Z,6.10
2022-09-12T00:51:46.525Z,6.10
2022-09-12T00:54:17.223Z,5.90
2022-09-12T00:56:46.594Z,6.25
2022-09-12T00:59:18.637Z,6.13
2022-09-12T01:01:48.538Z,6.00
2022-09-12T01:04:17.814Z,6.80
2022-09-12T01:06:44.733Z,6.20
2022-09-12T01:09:17.160Z,6.20
2022-09-12T01:11:46.909Z,6.68
2022-09-12T01:14:15.472Z,5.70
2022-09-12T01:16:42.503Z,5.75
2022-09-12T01:19:33.118Z,5.85
2022-09-12T01:22:26.669Z,5.55
2022-09-12T01:25:16.519Z,5.00
2022-09-12T01:27:53.408Z,5.40
2022-09-12T01:30:55.822Z,5.68
2022-09-12T01:33:35.878Z,5.75
2022-09-12T01:36:21.340Z,5.30
2022-09-12T01:38:54.324Z,5.60
2022-09-12T01:41:28.567Z,5.87
2022-09-12T01:44:01.622Z,5.75
2022-09-12T01:46:39.765Z,5.47
2022-09-12T01:49:42.727Z,5.78
2022-09-12T01:52:09.037Z,6.82
2022-09-12T01:54:40.322Z,6.87
2022-09-12T01:57:14.182Z,5.60
2022-09-12T01:59:45.400Z,6.18
2022-09-12T02:02:17.455Z,6.18
2022-09-12T02:04:52.635Z,6.13
2022-09-12T02:07:38.760Z,5.73
2022-09-12T02:10:20.027Z,6.80
2022-09-12T02:12:52.640Z,6.85
2022-09-12T02:15:23.638Z,8.40
2022-09-12T02:17:52.840Z,7.60
2022-09-12T02:20:47.396Z,8.67
2022-09-12T02:23:21.910Z,8.00
2022-09-12T02:25:54.723Z,7.03
2022-09-12T02:28:29.964Z,7.30
2022-09-12T02:31:20.538Z,6.57
2022-09-12T02:33:53.185Z,6.80
2022-09-12T02:36:34.939Z,6.97
2022-09-12T02:39:01.529Z,7.10
2022-09-12T02:41:28.227Z,6.85
2022-09-12T02:43:54.827Z,7.00
2022-09-12T02:46:39.018Z,7.13
2022-09-12T02:49:05.547Z,7.13
2022-09-12T02:51:32.923Z,7.15
2022-09-12T02:53:59.402Z,7.45
2022-09-12T02:56:28.952Z,7.68
2022-09-12T02:59:01.283Z,7.43
2022-09-12T03:01:46.730Z,7.40
2022-09-12T03:04:41.808Z,7.00
2022-09-12T03:07:19.750Z,6.93
2022-09-12T03:10:02.986Z,6.75
2022-09-12T03:13:15.545Z,6.80
2022-09-12T03:16:21.513Z,6.82
2022-09-12T03:19:03.568Z,7.00
2022-09-12T03:21:46.396Z,7.35
2022-09-12T03:24:40.787Z,6.80
2022-09-12T03:27:16.355Z,7.83
2022-09-12T03:29:46.235Z,7.20
2022-09-12T03:32:12.652Z,8.18
2022-09-12T03:34:39.078Z,8.07
2022-09-12T03:37:05.947Z,7.78
2022-09-12T03:39:33.075Z,8.27
2022-09-12T03:41:59.578Z,8.45
2022-09-12T03:44:26.184Z,8.70
2022-09-12T03:46:52.560Z,9.38
2022-09-12T03:49:18.940Z,8.02
2022-09-12T03:51:45.315Z,8.17
2022-09-12T03:54:11.864Z,8.13
2022-09-12T03:56:39.129Z,8.63
2022-09-12T03:59:06.794Z,8.25
2022-09-12T04:01:33.904Z,8.77
2022-09-12T04:04:00.389Z,7.63
2022-09-12T04:06:26.874Z,7.65
2022-09-12T04:08:55.134Z,7.70
2022-09-12T04:11:22.834Z,7.95
2022-09-12T04:13:49.933Z,8.07
2022-09-12T04:16:17.823Z,11.10
2022-09-12T04:18:45.199Z,7.43
2022-09-12T04:21:18.323Z,7.70
2022-09-12T04:23:45.301Z,7.75
2022-09-12T04:26:13.825Z,8.43
2022-09-12T04:28:41.214Z,9.10
2022-09-12T04:31:12.515Z,8.38
2022-09-12T04:33:39.725Z,8.30
2022-09-12T04:36:12.006Z,8.13
2022-09-12T04:38:38.651Z,8.25
2022-09-12T04:41:13.534Z,8.33
2022-09-12T04:43:40.274Z,7.75
2022-09-12T04:46:08.914Z,8.45
2022-09-12T04:48:35.572Z,7.88
2022-09-12T04:51:20.879Z,7.50
2022-09-12T04:53:52.668Z,7.67
2022-09-12T04:56:20.277Z,8.57
2022-09-12T04:58:47.273Z,8.68
2022-09-12T05:01:22.011Z,9.95
2022-09-12T05:03:49.680Z,9.77
2022-09-12T05:06:19.423Z,9.83
2022-09-12T05:08:46.134Z,9.82
2022-09-12T05:11:15.200Z,9.43
2022-09-12T05:13:41.608Z,8.82
2022-09-12T05:16:11.372Z,8.90
2022-09-12T05:18:38.374Z,9.27
2022-09-12T05:21:08.065Z,10.10
2022-09-12T05:23:34.712Z,9.60
2022-09-12T05:26:02.443Z,8.88
2022-09-12T05:28:39.059Z,8.93
2022-09-12T05:31:14.365Z,9.03
2022-09-12T05:33:43.090Z,8.55
2022-09-12T05:36:19.615Z,7.63
2022-09-12T05:38:47.302Z,8.02
2022-09-12T05:41:25.711Z,7.43
2022-09-12T05:43:53.955Z,7.37
2022-09-12T05:46:22.086Z,7.53
2022-09-12T05:48:55.150Z,6.60
2022-09-12T05:51:25.407Z,7.05
2022-09-12T05:54:00.251Z,6.32
2022-09-12T05:56:29.429Z,6.60
2022-09-12T05:58:59.012Z,6.55
2022-09-12T06:01:27.237Z,6.88
2022-09-12T06:03:55.862Z,7.00
2022-09-12T06:06:25.032Z,6.78
2022-09-12T06:08:53.734Z,6.83
2022-09-12T06:11:23.056Z,6.45
2022-09-12T06:13:50.943Z,6.72
2022-09-12T06:16:19.911Z,6.45
2022-09-12T06:18:54.601Z,6.65
2022-09-12T06:21:22.364Z,7.30
2022-09-12T06:23:49.290Z,6.53
2022-09-12T06:26:18.436Z,6.25
2022-09-12T06:28:45.477Z,6.57
2022-09-12T06:31:15.028Z,6.20
2022-09-12T06:33:44.978Z,6.27
2022-09-12T06:36:16.103Z,6.22
2022-09-12T06:38:43.091Z,6.15
2022-09-12T06:41:12.201Z,6.60
2022-09-12T06:43:39.903Z,6.07
2022-09-12T06:46:07.513Z,6.10
2022-09-12T06:48:36.412Z,5.93
2022-09-12T06:51:07.707Z,5.15
2022-09-12T06:53:34.710Z,5.38
2022-09-12T06:56:06.991Z,5.78
2022-09-12T06:58:34.980Z,5.30
2022-09-12T07:01:09.733Z,4.90
2022-09-12T07:03:37.133Z,4.72
2022-09-12T07:06:12.100Z,4.97
2022-09-12T07:08:39.512Z,5.30
2022-09-12T07:11:24.400Z,4.87
2022-09-12T07:13:56.262Z,5.53
2022-09-12T07:16:23.777Z,5.40
2022-09-12T07:18:55.631Z,5.65
2022-09-12T07:21:22.698Z,5.57
2022-09-12T07:23:49.559Z,5.90
2022-09-12T07:26:16.533Z,5.50
2022-09-12T07:28:43.377Z,5.75
2022-09-12T07:31:16.569Z,6.20
2022-09-12T07:33:44.047Z,6.10
2022-09-12T07:36:14.261Z,6.77
2022-09-12T07:38:41.400Z,6.35
2022-09-12T07:41:19.602Z,6.20
2022-09-12T07:43:46.444Z,6.20
2022-09-12T07:46:14.320Z,6.88
2022-09-12T07:48:41.031Z,6.33
2022-09-12T07:51:10.352Z,6.60
2022-09-12T07:53:39.194Z,10.52
2022-09-12T07:56:06.726Z,6.40
2022-09-12T07:58:35.176Z,6.50
2022-09-12T08:01:13.255Z,6.10
2022-09-12T08:03:40.808Z,5.60
2022-09-12T08:06:12.360Z,5.97
2022-09-12T08:08:38.997Z,6.07
2022-09-12T08:11:08.558Z,6.90
2022-09-12T08:13:37.339Z,6.03
2022-09-12T08:16:11.922Z,6.10
2022-09-12T08:18:39.274Z,6.50
2022-09-12T08:21:07.768Z,6.80
2022-09-12T08:23:34.464Z,6.65
2022-09-12T08:26:06.085Z,6.20
2022-09-12T08:28:35.005Z,6.47
2022-09-12T08:31:11.892Z,6.68
2022-09-12T08:33:38.777Z,6.70
2022-09-12T08:36:17.196Z,7.03
2022-09-12T08:38:45.730Z,6.93
2022-09-12T08:41:18.204Z,6.15
2022-09-12T08:44:08.750Z,6.30
2022-09-12T08:46:47.839Z,6.30
2022-09-12T08:49:20.274Z,5.50
2022-09-12T08:51:47.132Z,6.17
2022-09-12T08:54:24.254Z,5.90
2022-09-12T08:56:52.150Z,6.18
2022-09-12T08:59:18.613Z,5.97
2022-09-12T09:01:45.664Z,6.10
2022-09-12T09:04:28.917Z,6.37
2022-09-12T09:07:07.625Z,5.60
2022-09-12T09:09:46.572Z,6.05
2022-09-12T09:12:27.921Z,6.10
2022-09-12T09:15:43.746Z,10.63
2022-09-12T09:18:28.685Z,5.97
2022-09-12T09:20:59.754Z,6.40
2022-09-12T09:23:42.575Z,6.40
2022-09-12T09:26:22.552Z,5.90
2022-09-12T09:28:52.772Z,6.70
2022-09-12T09:31:22.286Z,6.37
2022-09-12T09:33:56.467Z,20.20
2022-09-12T09:36:30.546Z,7.25
2022-09-12T09:39:25.655Z,6.53
2022-09-12T09:42:14.181Z,6.95
2022-09-12T09:44:41.062Z,6.67
2022-09-12T09:47:12.565Z,6.47
2022-09-12T09:49:39.663Z,7.13
2022-09-12T09:52:08.603Z,7.00
2022-09-12T09:54:40.735Z,7.03
2022-09-12T09:57:38.989Z,7.10
2022-09-12T10:00:27.237Z,6.82
2022-09-12T10:03:25.609Z,6.03
2022-09-12T10:05:54.912Z,6.88
2022-09-12T10:08:24.524Z,5.97
2022-09-12T10:11:04.343Z,7.10
2022-09-12T10:13:41.834Z,6.60
2022-09-12T10:16:27.873Z,6.85
2022-09-12T10:18:57.087Z,6.45
2022-09-12T10:21:41.313Z,7.15
2022-09-12T10:24:24.257Z,6.67
2022-09-12T10:26:56.913Z,6.30
2022-09-12T10:29:31.400Z,6.30
2022-09-12T10:32:01.202Z,6.55
2022-09-12T10:34:33.796Z,6.63
2022-09-12T10:37:33.760Z,7.03
2022-09-12T10:40:02.023Z,6.93
2022-09-12T10:42:49.341Z,6.65
2022-09-12T10:45:20.146Z,5.60
2022-09-12T10:47:47.111Z,6.03
2022-09-12T10:50:22.993Z,5.67
2022-09-12T10:52:49.725Z,6.18
2022-09-12T10:55:16.476Z,5.68
2022-09-12T10:58:21.831Z,5.50
2022-09-12T11:00:57.403Z,4.80
2022-09-12T11:03:41.242Z,5.20
2022-09-12T11:06:10.516Z,5.35
2022-09-12T11:08:45.909Z,5.13
2022-09-12T11:11:15.290Z,4.50
2022-09-12T11:13:50.071Z,5.25
2022-09-12T11:16:41.065Z,5.17
2022-09-12T11:19:48.053Z,5.03
2022-09-12T11:22:31.928Z,4.97
2022-09-12T11:25:19.199Z,4.60
2022-09-12T11:27:51.618Z,4.80
2022-09-12T11:30:18.706Z,4.73
2022-09-12T11:32:56.664Z,5.07
2022-09-12T11:35:28.772Z,4.40
2022-09-12T11:38:13.731Z,4.00
2022-09-12T11:40:46.425Z,3.90
2022-09-12T11:43:40.163Z,4.80
2022-09-12T11:46:27.672Z,4.43
2022-09-12T11:49:04.682Z,4.03
2022-09-12T11:51:40.756Z,4.68
2022-09-12T11:54:49.033Z,4.72
2022-09-12T11:57:26.341Z,4.50
2022-09-12T12:00:14.929Z,5.00
2022-09-12T12:03:00.654Z,4.43
2022-09-12T12:05:57.592Z,4.00
2022-09-12T12:08:25.848Z,3.55
2022-09-12T12:11:00.978Z,3.70
2022-09-12T12:13:35.216Z,4.00
2022-09-12T12:16:14.908Z,5.65
2022-09-12T12:18:43.171Z,3.75
2022-09-12T12:21:34.918Z,3.92
2022-09-12T12:24:07.484Z,4.00
2022-09-12T12:26:40.275Z,3.60
2022-09-12T12:29:21.924Z,3.08
2022-09-12T12:32:06.287Z,3.47
2022-09-12T12:34:32.787Z,3.53
2022-09-12T12:37:19.828Z,2.93
2022-09-12T12:39:50.356Z,2.20
2022-09-12T12:42:46.650Z,3.17
2022-09-12T12:45:33.566Z,2.70
2022-09-12T12:48:08.872Z,4.10
2022-09-12T12:50:35.636Z,3.10
2022-09-12T12:53:18.116Z,2.90
2022-09-12T12:55:44.492Z,4.28
2022-09-12T12:58:35.085Z,3.58
2022-09-12T13:01:15.636Z,4.20
2022-09-12T13:03:46.681Z,3.23
2022-09-12T13:06:44.431Z,3.50
2022-09-12T13:09:32.630Z,4.63
2022-09-12T13:12:06.262Z,4.38
2022-09-12T13:14:58.282Z,3.95
2022-09-12T13:17:34.623Z,3.97
2022-09-12T13:20:26.759Z,4.03
2022-09-12T13:22:54.241Z,4.20
2022-09-12T13:25:33.017Z,4.40
2022-09-12T13:28:11.442Z,4.43
2022-09-12T13:30:42.675Z,4.07
2022-09-12T13:33:56.223Z,4.40
2022-09-12T13:36:38.146Z,4.10
2022-09-12T13:39:27.439Z,4.03
2022-09-12T13:42:18.970Z,4.25
2022-09-12T13:44:50.913Z,3.90
2022-09-12T13:47:27.346Z,3.92
2022-09-12T13:49:55.365Z,4.05
2022-09-12T13:52:26.256Z,4.40
2022-09-12T13:54:56.054Z,4.57
2022-09-12T13:57:30.617Z,5.20
2022-09-12T13:59:59.027Z,4.70
2022-09-12T14:02:28.664Z,4.25
2022-09-12T14:05:09.220Z,4.40
2022-09-12T14:08:01.409Z,4.20
2022-09-12T14:10:38.868Z,4.13
2022-09-12T14:13:13.222Z,4.00
2022-09-12T14:15:44.248Z,3.67
2022-09-12T14:18:23.486Z,3.85
2022-09-12T14:20:52.095Z,3.80
2022-09-12T14:23:29.082Z,4.00
2022-09-12T14:25:58.602Z,4.20
2022-09-12T14:28:28.236Z,4.10
2022-09-12T14:30:58.878Z,3.97
2022-09-12T14:33:25.826Z,4.07
2022-09-12T14:36:06.764Z,3.77
2022-09-12T14:38:49.338Z,3.70
2022-09-12T14:41:23.879Z,4.05
2022-09-12T14:43:54.474Z,4.47
2022-09-12T14:46:30.704Z,4.30
2022-09-12T14:49:31.199Z,4.33
2022-09-12T14:52:00.773Z,4.20
2022-09-12T14:54:33.769Z,4.43
2022-09-12T14:57:02.350Z,4.25
2022-09-12T14:59:34.694Z,3.83
2022-09-12T15:02:22.455Z,4.37
2022-09-12T15:04:51.693Z,3.88
2022-09-12T15:07:33.554Z,3.80
2022-09-12T15:10:02.299Z,4.10
2022-09-12T15:12:28.865Z,4.35
2022-09-12T15:15:04.010Z,4.47
2022-09-12T15:17:30.445Z,4.10
2022-09-12T15:19:56.869Z,4.18
2022-09-12T15:22:24.625Z,3.83
2022-09-12T15:24:51.018Z,3.75
2022-09-12T15:27:17.872Z,4.30
2022-09-12T15:29:44.382Z,3.95
2022-09-12T15:32:22.621Z,4.20
2022-09-12T15:34:49.351Z,4.30
2022-09-12T15:37:17.442Z,4.18
2022-09-12T15:39:46.844Z,3.40
2022-09-12T15:42:14.886Z,3.80
2022-09-12T15:44:41.967Z,4.40
2022-09-12T15:47:14.517Z,4.47
2022-09-12T15:49:41.302Z,4.35
2022-09-12T15:52:13.845Z,4.70
2022-09-12T15:54:41.016Z,3.80
2022-09-12T15:57:08.262Z,4.10
2022-09-12T15:59:34.657Z,4.10
2022-09-12T16:02:02.322Z,4.15
2022-09-12T16:04:30.535Z,4.00
2022-09-12T16:06:57.308Z,4.15
2022-09-12T16:09:24.364Z,4.55
2022-09-12T16:11:50.848Z,3.92
2022-09-12T16:14:18.795Z,4.18
2022-09-12T16:16:53.222Z,4.27
2022-09-12T16:19:20.062Z,4.20
2022-09-12T16:21:46.708Z,4.70
2022-09-12T16:24:13.092Z,4.55
2022-09-12T16:26:39.560Z,4.22
2022-09-12T16:29:06.078Z,4.07
2022-09-12T16:31:32.570Z,3.80
2022-09-12T16:33:59.151Z,4.15
2022-09-12T16:36:25.629Z,4.00
2022-09-12T16:38:53.771Z,3.83
2022-09-12T16:41:22.347Z,4.10
2022-09-12T16:43:48.816Z,3.92
2022-09-12T16:46:18.973Z,4.10
2022-09-12T16:48:52.677Z,3.95
2022-09-12T16:51:25.910Z,4.13
2022-09-12T16:53:53.690Z,4.17
2022-09-12T16:56:20.287Z,3.92
2022-09-12T16:58:47.824Z,4.20
2022-09-12T17:01:17.173Z,4.20
2022-09-12T17:03:44.210Z,4.20
2022-09-12T17:06:13.952Z,4.10
2022-09-12T17:08:48.528Z,4.10
2022-09-12T17:11:21.102Z,4.20
2022-09-12T17:14:04.498Z,3.90
2022-09-12T17:16:34.291Z,4.05
2022-09-12T17:19:00.932Z,4.30
2022-09-12T17:21:27.537Z,4.20
2022-09-12T17:23:54.359Z,4.38
2022-09-12T17:26:21.225Z,4.50
2022-09-12T17:28:48.170Z,4.20
2022-09-12T17:31:15.149Z,4.07
2022-09-12T17:33:42.129Z,4.22
2022-09-12T17:36:11.404Z,8.63
2022-09-12T17:38:42.177Z,5.20
2022-09-12T17:41:17.988Z,4.88
2022-09-12T17:43:54.616Z,4.60
2022-09-12T17:46:23.628Z,4.43
2022-09-12T17:48:54.836Z,4.63
2022-09-12T17:51:22.837Z,12.95
2022-09-12T17:53:49.347Z,5.38
2022-09-12T17:56:15.868Z,4.57
2022-09-12T17:58:42.464Z,4.80
2022-09-12T18:01:33.687Z,4.70
2022-09-12T18:04:01.297Z,4.72
2022-09-12T18:06:32.617Z,4.25
2022-09-12T18:09:03.905Z,5.03
2022-09-12T18:11:30.442Z,4.57
2022-09-12T18:13:58.851Z,5.40
2022-09-12T18:16:26.228Z,7.10
2022-09-12T18:18:52.689Z,5.13
2022-09-12T18:21:19.911Z,5.30
2022-09-12T18:23:47.340Z,4.90
2022-09-12T18:26:14.659Z,5.13
2022-09-12T18:28:43.797Z,5.35
2022-09-12T18:31:18.564Z,5.35
2022-09-12T18:33:46.326Z,5.07
2022-09-12T18:36:14.475Z,5.50
2022-09-12T18:38:41.943Z,5.57
2022-09-12T18:41:20.287Z,5.30
2022-09-12T18:43:47.729Z,4.72
2022-09-12T18:46:18.808Z,5.30
2022-09-12T18:48:46.117Z,5.43
2022-09-12T18:51:16.587Z,5.15
2022-09-12T18:53:43.727Z,5.60
2022-09-12T18:56:12.484Z,5.30
2022-09-12T18:58:41.657Z,5.33
2022-09-12T19:01:17.306Z,5.65
2022-09-12T19:03:45.619Z,5.47
2022-09-12T19:06:21.456Z,5.68
2022-09-12T19:08:49.261Z,6.25
2022-09-12T19:11:16.412Z,6.37
2022-09-12T19:13:45.642Z,5.68
2022-09-12T19:16:17.549Z,5.70
2022-09-12T19:18:44.723Z,5.70
2022-09-12T19:21:22.157Z,5.55
2022-09-12T19:23:49.546Z,5.47
2022-09-12T19:26:17.449Z,5.32
2022-09-12T19:28:45.245Z,5.47
2022-09-12T19:31:14.434Z,6.25
2022-09-12T19:33:41.948Z,5.55
2022-09-12T19:36:27.622Z,5.10
2022-09-12T19:38:58.020Z,5.80
2022-09-12T19:41:24.464Z,5.55
2022-09-12T19:43:50.897Z,5.50
2022-09-12T19:46:22.517Z,6.28
2022-09-12T19:48:49.548Z,6.10
2022-09-12T19:51:17.700Z,5.40
2022-09-12T19:53:45.341Z,5.70
2022-09-12T19:56:13.789Z,5.60
2022-09-12T19:58:43.464Z,5.90
2022-09-12T20:01:12.833Z,6.23
2022-09-12T20:03:39.922Z,6.32
2022-09-12T20:06:09.246Z,6.00
2022-09-12T20:08:42.518Z,5.93
2022-09-12T20:11:13.735Z,6.07
2022-09-12T20:13:41.272Z,5.37
2022-09-12T20:16:11.521Z,5.60
2022-09-12T20:18:38.818Z,5.80
2022-09-12T20:21:18.253Z,5.30
2022-09-12T20:23:46.093Z,5.43
2022-09-12T20:26:13.641Z,6.17
2022-09-12T20:28:41.258Z,5.85
2022-09-12T20:31:11.887Z,5.88
2022-09-12T20:33:38.846Z,7.32
2022-09-12T20:36:17.373Z,6.32
2022-09-12T20:38:52.180Z,5.90
2022-09-12T20:41:20.289Z,6.05
2022-09-12T20:43:51.274Z,6.28
2022-09-12T20:46:21.806Z,6.22
2022-09-12T20:48:59.533Z,6.50
2022-09-12T20:51:30.288Z,5.70
2022-09-12T20:54:01.551Z,5.82
2022-09-12T20:56:28.654Z,5.80
2022-09-12T20:58:55.861Z,5.88
2022-09-12T21:01:23.374Z,6.05
2022-09-12T21:03:50.293Z,6.73
2022-09-12T21:06:20.517Z,6.38
2022-09-12T21:08:48.451Z,5.72
2022-09-12T21:11:16.890Z,6.32
2022-09-12T21:13:43.734Z,6.40
2022-09-12T21:16:15.598Z,6.30
2022-09-12T21:18:42.845Z,6.00
2022-09-12T21:21:10.758Z,6.07
2022-09-12T21:23:37.337Z,6.35
2022-09-12T21:26:04.373Z,5.93
2022-09-12T21:28:31.370Z,6.33
2022-09-12T21:30:58.040Z,6.57
2022-09-12T21:33:24.853Z,5.55
2022-09-12T21:35:51.299Z,6.53
2022-09-12T21:38:19.210Z,6.22
2022-09-12T21:40:48.513Z,5.77
2022-09-12T21:43:15.327Z,6.07
2022-09-12T21:45:42.063Z,5.80
2022-09-12T21:48:08.478Z,5.88
2022-09-12T21:50:35.123Z,6.60
2022-09-12T21:53:01.658Z,5.90
2022-09-12T21:55:28.110Z,7.10
2022-09-12T21:57:55.372Z,7.88
2022-09-12T22:00:22.649Z,6.65
2022-09-12T22:02:49.273Z,6.40
2022-09-12T22:05:16.184Z,6.03
2022-09-12T22:07:42.610Z,5.80
2022-09-12T22:10:09.455Z,6.20
2022-09-12T22:12:35.897Z,6.22
2022-09-12T22:15:17.521Z,6.30
2022-09-12T22:17:49.011Z,6.73
2022-09-12T22:20:15.440Z,6.55
2022-09-12T22:23:00.125Z,6.05
2022-09-12T22:25:26.574Z,6.45
2022-09-12T22:27:54.147Z,6.40
2022-09-12T22:30:21.707Z,6.43
2022-09-12T22:32:49.977Z,6.70
2022-09-12T22:35:18.469Z,5.93
2022-09-12T22:37:47.034Z,5.60
2022-09-12T22:40:13.695Z,6.55
2022-09-12T22:42:40.420Z,6.13
2022-09-12T22:45:07.686Z,6.10
2022-09-12T22:47:34.099Z,6.05
2022-09-12T22:50:00.579Z,6.25
2022-09-12T22:52:27.020Z,6.05
2022-09-12T22:54:53.521Z,6.00
2022-09-12T22:57:19.950Z,6.22
2022-09-12T22:59:46.976Z,5.70
2022-09-12T23:02:13.595Z,5.97
2022-09-12T23:04:40.135Z,6.22
2022-09-12T23:07:06.595Z,6.27
2022-09-12T23:09:35.524Z,5.97
2022-09-12T23:12:02.517Z,6.05
2022-09-12T23:14:28.964Z,6.53
2022-09-12T23:16:55.508Z,6.28
2022-09-12T23:19:21.934Z,6.10
2022-09-12T23:21:48.374Z,5.90
2022-09-12T23:24:14.766Z,6.20
2022-09-12T23:26:41.163Z,6.47
2022-09-12T23:29:07.606Z,6.10
2022-09-12T23:31:34.374Z,6.60
2022-09-12T23:34:03.471Z,6.20
2022-09-12T23:36:30.223Z,6.03
2022-09-12T23:38:56.824Z,6.18
2022-09-12T23:41:23.439Z,6.70
2022-09-12T23:43:49.849Z,6.07
2022-09-12T23:46:17.648Z,6.45
2022-09-12T23:48:44.178Z,6.60
2022-09-12T23:51:11.338Z,6.47
2022-09-12T23:53:38.160Z,6.43
2022-09-12T23:56:05.535Z,6.70
2022-09-12T23:58:32.190Z,7.15
